sensor_id;sensor_type;location;lat;lon;timestamp;pressure;altitude;pressure_sealevel;temperature;humidity
73457;BME280;61691;53.072;6.582;2023-08-17T00:01:34;102240.81;;;16.36;71.81
73457;BME280;61691;53.072;6.582;2023-08-17T00:04:01;102263.09;;;16.46;71.90
73457;BME280;61691;53.072;6.582;2023-08-17T00:06:28;102241.06;;;16.33;72.45
73457;BME280;61691;53.072;6.582;2023-08-17T00:08:55;102285.66;;;16.53;72.34
73457;BME280;61691;53.072;6.582;2023-08-17T00:11:22;102278.59;;;16.52;72.41
73457;BME280;61691;53.072;6.582;2023-08-17T00:13:50;102258.00;;;16.43;72.60
73457;BME280;61691;53.072;6.582;2023-08-17T00:16:17;102258.56;;;16.47;72.38
73457;BME280;61691;53.072;6.582;2023-08-17T00:18:44;102276.59;;;16.54;72.46
73457;BME280;61691;53.072;6.582;2023-08-17T00:21:10;102259.13;;;16.50;72.56
73457;BME280;61691;53.072;6.582;2023-08-17T00:23:37;102266.19;;;16.51;72.72
73457;BME280;61691;53.072;6.582;2023-08-17T00:26:04;102265.03;;;16.54;72.80
73457;BME280;61691;53.072;6.582;2023-08-17T00:28:31;102250.69;;;16.45;72.63
73457;BME280;61691;53.072;6.582;2023-08-17T00:31:00;102249.00;;;16.44;72.78
73457;BME280;61691;53.072;6.582;2023-08-17T00:33:27;102267.59;;;16.55;72.96
73457;BME280;61691;53.072;6.582;2023-08-17T00:35:54;102238.28;;;16.44;72.85
73457;BME280;61691;53.072;6.582;2023-08-17T00:38:20;102261.25;;;16.56;72.87
73457;BME280;61691;53.072;6.582;2023-08-17T00:40:47;102261.69;;;16.61;72.87
73457;BME280;61691;53.072;6.582;2023-08-17T00:43:14;102237.72;;;16.50;72.90
73457;BME280;61691;53.072;6.582;2023-08-17T00:45:41;102239.69;;;16.58;72.86
73457;BME280;61691;53.072;6.582;2023-08-17T00:48:08;102251.00;;;16.61;72.84
73457;BME280;61691;53.072;6.582;2023-08-17T00:50:36;102248.72;;;16.57;72.82
73457;BME280;61691;53.072;6.582;2023-08-17T00:53:04;102225.47;;;16.38;72.83
73457;BME280;61691;53.072;6.582;2023-08-17T00:55:31;102254.06;;;16.57;72.66
73457;BME280;61691;53.072;6.582;2023-08-17T00:57:59;102237.72;;;16.50;73.27
73457;BME280;61691;53.072;6.582;2023-08-17T01:00:27;102236.59;;;16.43;73.06
73457;BME280;61691;53.072;6.582;2023-08-17T01:02:54;102256.03;;;16.55;73.27
73457;BME280;61691;53.072;6.582;2023-08-17T01:05:23;102243.63;;;16.44;73.23
73457;BME280;61691;53.072;6.582;2023-08-17T01:07:50;102243.50;;;16.46;73.46
73457;BME280;61691;53.072;6.582;2023-08-17T01:10:17;102225.28;;;16.40;73.13
73457;BME280;61691;53.072;6.582;2023-08-17T01:12:50;102243.06;;;16.50;73.25
73457;BME280;61691;53.072;6.582;2023-08-17T01:15:22;102231.50;;;16.40;73.56
73457;BME280;61691;53.072;6.582;2023-08-17T01:20:30;102221.66;;;16.31;73.76
73457;BME280;61691;53.072;6.582;2023-08-17T01:23:04;102209.78;;;16.24;73.76
73457;BME280;61691;53.072;6.582;2023-08-17T01:25:31;102239.09;;;16.35;73.77
73457;BME280;61691;53.072;6.582;2023-08-17T01:28:04;102199.63;;;16.08;73.87
73457;BME280;61691;53.072;6.582;2023-08-17T01:33:15;102248.25;;;16.33;74.20
73457;BME280;61691;53.072;6.582;2023-08-17T01:35:48;102216.53;;;16.18;74.03
73457;BME280;61691;53.072;6.582;2023-08-17T01:38:21;102238.22;;;16.25;73.95
73457;BME280;61691;53.072;6.582;2023-08-17T01:40:50;102236.81;;;16.21;74.14
73457;BME280;61691;53.072;6.582;2023-08-17T01:43:17;102237.09;;;16.18;74.60
73457;BME280;61691;53.072;6.582;2023-08-17T01:45:44;102231.19;;;16.14;74.23
73457;BME280;61691;53.072;6.582;2023-08-17T01:48:11;102161.91;;;15.71;74.69
73457;BME280;61691;53.072;6.582;2023-08-17T01:50:38;102237.63;;;16.12;74.48
73457;BME280;61691;53.072;6.582;2023-08-17T01:53:04;102226.06;;;16.02;74.26
73457;BME280;61691;53.072;6.582;2023-08-17T01:55:31;102246.94;;;16.08;74.46
73457;BME280;61691;53.072;6.582;2023-08-17T01:57:58;102248.59;;;16.09;74.75
73457;BME280;61691;53.072;6.582;2023-08-17T02:00:25;102240.88;;;16.06;74.39
73457;BME280;61691;53.072;6.582;2023-08-17T02:02:51;102240.16;;;16.04;74.53
73457;BME280;61691;53.072;6.582;2023-08-17T02:05:18;102235.09;;;16.01;74.73
73457;BME280;61691;53.072;6.582;2023-08-17T02:07:45;102240.16;;;16.04;74.62
73457;BME280;61691;53.072;6.582;2023-08-17T02:10:11;102227.19;;;15.99;74.85
73457;BME280;61691;53.072;6.582;2023-08-17T02:12:38;102221.00;;;15.99;74.42
73457;BME280;61691;53.072;6.582;2023-08-17T02:15:05;102206.00;;;15.86;74.66
73457;BME280;61691;53.072;6.582;2023-08-17T02:17:32;102242.28;;;16.10;74.96
73457;BME280;61691;53.072;6.582;2023-08-17T02:19:59;102238.63;;;16.11;74.52
73457;BME280;61691;53.072;6.582;2023-08-17T02:22:25;102227.50;;;16.06;74.97
73457;BME280;61691;53.072;6.582;2023-08-17T02:24:52;102230.88;;;16.08;74.69
73457;BME280;61691;53.072;6.582;2023-08-17T02:27:19;102224.81;;;16.06;74.71
73457;BME280;61691;53.072;6.582;2023-08-17T02:29:45;102216.19;;;16.02;74.60
73457;BME280;61691;53.072;6.582;2023-08-17T02:32:12;102215.34;;;16.02;74.43
73457;BME280;61691;53.072;6.582;2023-08-17T02:34:39;102221.41;;;16.04;74.86
73457;BME280;61691;53.072;6.582;2023-08-17T02:37:06;102208.59;;;15.98;74.38
73457;BME280;61691;53.072;6.582;2023-08-17T02:39:32;102203.00;;;16.01;74.59
73457;BME280;61691;53.072;6.582;2023-08-17T02:41:59;102194.78;;;15.93;74.65
73457;BME280;61691;53.072;6.582;2023-08-17T02:44:26;102212.97;;;15.99;74.85
73457;BME280;61691;53.072;6.582;2023-08-17T02:46:54;102215.34;;;16.02;75.01
73457;BME280;61691;53.072;6.582;2023-08-17T02:49:21;102186.31;;;15.87;75.16
73457;BME280;61691;53.072;6.582;2023-08-17T02:51:48;102180.97;;;15.87;75.01
73457;BME280;61691;53.072;6.582;2023-08-17T02:54:14;102151.69;;;15.76;75.13
73457;BME280;61691;53.072;6.582;2023-08-17T02:56:41;102199.31;;;16.02;75.19
73457;BME280;61691;53.072;6.582;2023-08-17T02:59:08;102205.25;;;16.05;75.34
73457;BME280;61691;53.072;6.582;2023-08-17T03:01:35;102208.88;;;16.04;75.50
73457;BME280;61691;53.072;6.582;2023-08-17T03:04:01;102213.13;;;16.07;75.46
73457;BME280;61691;53.072;6.582;2023-08-17T03:06:28;102193.94;;;16.02;75.67
73457;BME280;61691;53.072;6.582;2023-08-17T03:08:55;102218.19;;;16.10;75.44
73457;BME280;61691;53.072;6.582;2023-08-17T03:11:21;102197.63;;;16.01;75.70
73457;BME280;61691;53.072;6.582;2023-08-17T03:13:48;102213.69;;;16.10;75.76
73457;BME280;61691;53.072;6.582;2023-08-17T03:16:15;102214.66;;;16.09;75.69
73457;BME280;61691;53.072;6.582;2023-08-17T03:18:42;102211.72;;;16.12;76.08
73457;BME280;61691;53.072;6.582;2023-08-17T03:21:11;102195.34;;;15.96;76.30
73457;BME280;61691;53.072;6.582;2023-08-17T03:23:38;102208.03;;;16.04;76.18
73457;BME280;61691;53.072;6.582;2023-08-17T03:26:04;102194.25;;;15.99;76.05
73457;BME280;61691;53.072;6.582;2023-08-17T03:28:31;102198.31;;;16.03;75.95
73457;BME280;61691;53.072;6.582;2023-08-17T03:30:58;102192.28;;;16.01;75.87
73457;BME280;61691;53.072;6.582;2023-08-17T03:33:24;102183.81;;;15.96;76.12
73457;BME280;61691;53.072;6.582;2023-08-17T03:35:51;102186.59;;;15.94;76.19
73457;BME280;61691;53.072;6.582;2023-08-17T03:38:18;102184.09;;;15.93;76.15
73457;BME280;61691;53.072;6.582;2023-08-17T03:40:46;102203.00;;;16.01;76.43
73457;BME280;61691;53.072;6.582;2023-08-17T03:43:13;102170.56;;;15.84;76.61
73457;BME280;61691;53.072;6.582;2023-08-17T03:45:42;102129.97;;;15.60;76.42
73457;BME280;61691;53.072;6.582;2023-08-17T03:48:09;102197.06;;;15.97;76.68
73457;BME280;61691;53.072;6.582;2023-08-17T03:50:36;102175.63;;;15.87;76.48
73457;BME280;61691;53.072;6.582;2023-08-17T03:53:03;102158.72;;;15.77;76.46
73457;BME280;61691;53.072;6.582;2023-08-17T03:55:30;102192.81;;;15.95;77.09
73457;BME280;61691;53.072;6.582;2023-08-17T03:57:57;102181.25;;;15.84;76.59
73457;BME280;61691;53.072;6.582;2023-08-17T04:00:23;102184.06;;;15.83;76.81
73457;BME280;61691;53.072;6.582;2023-08-17T04:02:50;102191.97;;;15.84;76.92
73457;BME280;61691;53.072;6.582;2023-08-17T04:05:17;102181.34;;;15.73;76.73
73457;BME280;61691;53.072;6.582;2023-08-17T04:07:43;102199.38;;;15.81;77.30
73457;BME280;61691;53.072;6.582;2023-08-17T04:10:10;102184.31;;;15.70;77.20
73457;BME280;61691;53.072;6.582;2023-08-17T04:12:37;102186.25;;;15.68;77.54
73457;BME280;61691;53.072;6.582;2023-08-17T04:15:04;102178.78;;;15.62;77.48
73457;BME280;61691;53.072;6.582;2023-08-17T04:17:31;102181.47;;;15.62;77.52
73457;BME280;61691;53.072;6.582;2023-08-17T04:19:57;102198.53;;;15.71;77.47
73457;BME280;61691;53.072;6.582;2023-08-17T04:22:24;102197.50;;;15.72;77.72
73457;BME280;61691;53.072;6.582;2023-08-17T04:24:51;102205.53;;;15.72;77.44
73457;BME280;61691;53.072;6.582;2023-08-17T04:27:18;102188.50;;;15.63;77.88
73457;BME280;61691;53.072;6.582;2023-08-17T04:29:46;102173.50;;;15.51;77.65
73457;BME280;61691;53.072;6.582;2023-08-17T04:32:15;102206.25;;;15.74;77.97
73457;BME280;61691;53.072;6.582;2023-08-17T04:34:46;102211.59;;;15.74;78.00
73457;BME280;61691;53.072;6.582;2023-08-17T04:37:13;102195.50;;;15.64;77.87
73457;BME280;61691;53.072;6.582;2023-08-17T04:39:39;102210.75;;;15.73;77.93
73457;BME280;61691;53.072;6.582;2023-08-17T04:42:07;102159.09;;;15.42;78.19
73457;BME280;61691;53.072;6.582;2023-08-17T04:44:34;102214.16;;;15.75;78.13
73457;BME280;61691;53.072;6.582;2023-08-17T04:47:00;102181.84;;;15.58;78.28
73457;BME280;61691;53.072;6.582;2023-08-17T04:49:27;102193.31;;;15.69;78.21
73457;BME280;61691;53.072;6.582;2023-08-17T04:51:54;102199.50;;;15.70;78.25
73457;BME280;61691;53.072;6.582;2023-08-17T04:54:21;102160.53;;;15.46;77.99
73457;BME280;61691;53.072;6.582;2023-08-17T04:56:47;102172.41;;;15.54;78.58
73457;BME280;61691;53.072;6.582;2023-08-17T04:59:14;102128.69;;;15.34;78.09
73457;BME280;61691;53.072;6.582;2023-08-17T05:01:41;102194.00;;;15.71;78.32
73457;BME280;61691;53.072;6.582;2023-08-17T05:04:08;102184.56;;;15.67;78.38
73457;BME280;61691;53.072;6.582;2023-08-17T05:06:35;102196.16;;;15.77;78.28
73457;BME280;61691;53.072;6.582;2023-08-17T05:09:03;102207.88;;;15.86;78.50
73457;BME280;61691;53.072;6.582;2023-08-17T05:11:32;102199.72;;;15.97;78.81
73457;BME280;61691;53.072;6.582;2023-08-17T05:13:59;102207.56;;;16.29;78.66
73457;BME280;61691;53.072;6.582;2023-08-17T05:16:26;102205.88;;;16.47;77.83
73457;BME280;61691;53.072;6.582;2023-08-17T05:18:53;102212.09;;;16.57;77.63
73457;BME280;61691;53.072;6.582;2023-08-17T05:21:20;102217.88;;;16.62;77.06
73457;BME280;61691;53.072;6.582;2023-08-17T05:23:46;102209.16;;;16.60;76.88
73457;BME280;61691;53.072;6.582;2023-08-17T05:26:13;102193.19;;;16.49;76.96
73457;BME280;61691;53.072;6.582;2023-08-17T05:28:42;102204.50;;;16.62;76.52
73457;BME280;61691;53.072;6.582;2023-08-17T05:31:09;102212.53;;;16.62;76.53
73457;BME280;61691;53.072;6.582;2023-08-17T05:33:36;102216.19;;;16.61;76.32
73457;BME280;61691;53.072;6.582;2023-08-17T05:36:03;102195.16;;;16.57;76.21
73457;BME280;61691;53.072;6.582;2023-08-17T05:38:29;102197.97;;;16.55;76.16
73457;BME280;61691;53.072;6.582;2023-08-17T05:40:57;102201.63;;;16.54;76.33
73457;BME280;61691;53.072;6.582;2023-08-17T05:43:24;102184.59;;;16.36;76.33
73457;BME280;61691;53.072;6.582;2023-08-17T05:45:50;102192.91;;;16.43;76.11
73457;BME280;61691;53.072;6.582;2023-08-17T05:48:21;102199.66;;;16.47;76.34
73457;BME280;61691;53.072;6.582;2023-08-17T05:50:48;102201.34;;;16.48;76.01
73457;BME280;61691;53.072;6.582;2023-08-17T05:53:14;102208.13;;;16.52;76.08
73457;BME280;61691;53.072;6.582;2023-08-17T05:55:41;102208.69;;;16.55;76.42
73457;BME280;61691;53.072;6.582;2023-08-17T05:58:08;102203.91;;;16.59;76.22
73457;BME280;61691;53.072;6.582;2023-08-17T06:00:34;102206.47;;;16.70;76.34
73457;BME280;61691;53.072;6.582;2023-08-17T06:03:01;102202.81;;;16.81;75.85
73457;BME280;61691;53.072;6.582;2023-08-17T06:05:29;102197.72;;;16.78;75.67
73457;BME280;61691;53.072;6.582;2023-08-17T06:07:57;102201.69;;;16.83;75.94
73457;BME280;61691;53.072;6.582;2023-08-17T06:10:24;102227.88;;;16.99;75.80
73457;BME280;61691;53.072;6.582;2023-08-17T06:12:52;102224.66;;;17.05;75.56
73457;BME280;61691;53.072;6.582;2023-08-17T06:15:19;102213.09;;;16.95;75.25
73457;BME280;61691;53.072;6.582;2023-08-17T06:17:46;102213.38;;;16.92;75.80
73457;BME280;61691;53.072;6.582;2023-08-17T06:20:13;102226.22;;;16.98;76.04
73457;BME280;61691;53.072;6.582;2023-08-17T06:22:40;102215.78;;;16.95;75.97
73457;BME280;61691;53.072;6.582;2023-08-17T06:25:07;102190.28;;;16.81;76.06
73457;BME280;61691;53.072;6.582;2023-08-17T06:27:35;102216.19;;;17.00;76.14
73457;BME280;61691;53.072;6.582;2023-08-17T06:30:03;102200.28;;;16.89;75.77
73457;BME280;61691;53.072;6.582;2023-08-17T06:32:30;102228.59;;;17.01;75.74
73457;BME280;61691;53.072;6.582;2023-08-17T06:34:57;102236.34;;;17.04;75.69
73457;BME280;61691;53.072;6.582;2023-08-17T06:37:24;102163.50;;;16.62;75.78
73457;BME280;61691;53.072;6.582;2023-08-17T06:39:51;102225.63;;;16.94;75.67
73457;BME280;61691;53.072;6.582;2023-08-17T06:42:18;102241.13;;;17.10;75.55
73457;BME280;61691;53.072;6.582;2023-08-17T06:44:44;102231.97;;;17.13;75.69
73457;BME280;61691;53.072;6.582;2023-08-17T06:47:11;102216.63;;;17.05;75.66
73457;BME280;61691;53.072;6.582;2023-08-17T06:49:38;102228.16;;;17.15;75.46
73457;BME280;61691;53.072;6.582;2023-08-17T06:52:05;102228.97;;;17.25;75.05
73457;BME280;61691;53.072;6.582;2023-08-17T06:54:32;102225.31;;;17.26;75.10
73457;BME280;61691;53.072;6.582;2023-08-17T06:56:58;102181.06;;;17.03;74.92
73457;BME280;61691;53.072;6.582;2023-08-17T06:59:26;102226.94;;;17.47;75.13
73457;BME280;61691;53.072;6.582;2023-08-17T07:01:53;102228.75;;;17.56;74.17
73457;BME280;61691;53.072;6.582;2023-08-17T07:04:20;102218.91;;;17.66;73.49
73457;BME280;61691;53.072;6.582;2023-08-17T07:06:46;102222.94;;;17.70;73.06
73457;BME280;61691;53.072;6.582;2023-08-17T07:09:13;102230.00;;;17.71;73.09
73457;BME280;61691;53.072;6.582;2023-08-17T07:11:40;102228.44;;;17.78;72.23
73457;BME280;61691;53.072;6.582;2023-08-17T07:14:07;102236.19;;;17.81;72.37
73457;BME280;61691;53.072;6.582;2023-08-17T07:16:33;102211.94;;;17.73;72.31
73457;BME280;61691;53.072;6.582;2023-08-17T07:19:00;102206.25;;;17.76;71.68
73457;BME280;61691;53.072;6.582;2023-08-17T07:21:27;102214.72;;;17.81;70.65
73457;BME280;61691;53.072;6.582;2023-08-17T07:23:54;102224.56;;;17.90;70.83
73457;BME280;61691;53.072;6.582;2023-08-17T07:26:23;102221.59;;;17.93;70.59
73457;BME280;61691;53.072;6.582;2023-08-17T07:28:49;102203.41;;;17.87;70.08
73457;BME280;61691;53.072;6.582;2023-08-17T07:31:16;102223.03;;;17.88;69.42
73457;BME280;61691;53.072;6.582;2023-08-17T07:33:43;102226.56;;;17.88;69.72
73457;BME280;61691;53.072;6.582;2023-08-17T07:36:10;102247.47;;;17.85;69.21
73457;BME280;61691;53.072;6.582;2023-08-17T07:38:36;102222.41;;;17.66;69.19
73457;BME280;61691;53.072;6.582;2023-08-17T07:41:03;102226.94;;;17.66;69.71
73457;BME280;61691;53.072;6.582;2023-08-17T07:43:30;102221.50;;;17.75;69.12
73457;BME280;61691;53.072;6.582;2023-08-17T07:45:57;102233.69;;;17.70;69.33
73457;BME280;61691;53.072;6.582;2023-08-17T07:48:24;102231.41;;;17.75;69.29
73457;BME280;61691;53.072;6.582;2023-08-17T07:50:52;102249.28;;;17.84;69.24
73457;BME280;61691;53.072;6.582;2023-08-17T07:53:19;102231.13;;;17.78;69.05
73457;BME280;61691;53.072;6.582;2023-08-17T07:55:46;102223.78;;;17.80;68.91
73457;BME280;61691;53.072;6.582;2023-08-17T07:58:14;102225.16;;;17.84;69.12
73457;BME280;61691;53.072;6.582;2023-08-17T08:00:41;102232.09;;;18.04;69.10
73457;BME280;61691;53.072;6.582;2023-08-17T08:03:08;102212.03;;;18.08;69.45
73457;BME280;61691;53.072;6.582;2023-08-17T08:05:34;102226.22;;;18.46;68.75
73457;BME280;61691;53.072;6.582;2023-08-17T08:08:02;102224.34;;;18.56;67.06
73457;BME280;61691;53.072;6.582;2023-08-17T08:10:28;102225.84;;;18.59;66.52
73457;BME280;61691;53.072;6.582;2023-08-17T08:12:55;102219.16;;;18.45;66.17
73457;BME280;61691;53.072;6.582;2023-08-17T08:15:22;102241.47;;;18.45;65.92
73457;BME280;61691;53.072;6.582;2023-08-17T08:17:49;102235.50;;;18.34;65.51
73457;BME280;61691;53.072;6.582;2023-08-17T08:20:16;102213.97;;;18.16;65.68
73457;BME280;61691;53.072;6.582;2023-08-17T08:22:42;102228.63;;;18.22;65.60
73457;BME280;61691;53.072;6.582;2023-08-17T08:25:09;102217.59;;;18.25;66.34
73457;BME280;61691;53.072;6.582;2023-08-17T08:27:36;102239.31;;;18.31;65.79
73457;BME280;61691;53.072;6.582;2023-08-17T08:30:05;102240.25;;;18.40;65.85
73457;BME280;61691;53.072;6.582;2023-08-17T08:32:32;102235.25;;;18.45;65.79
73457;BME280;61691;53.072;6.582;2023-08-17T08:34:59;102233.28;;;18.47;64.80
73457;BME280;61691;53.072;6.582;2023-08-17T08:37:26;102226.22;;;18.46;65.11
73457;BME280;61691;53.072;6.582;2023-08-17T08:39:54;102240.22;;;18.67;65.34
73457;BME280;61691;53.072;6.582;2023-08-17T08:42:22;102237.13;;;18.80;65.44
73457;BME280;61691;53.072;6.582;2023-08-17T08:44:50;102255.53;;;19.10;65.09
73457;BME280;61691;53.072;6.582;2023-08-17T08:47:17;102246.44;;;19.29;64.30
73457;BME280;61691;53.072;6.582;2023-08-17T08:52:23;102246.84;;;19.60;63.28
73457;BME280;61691;53.072;6.582;2023-08-17T08:54:51;102215.38;;;19.52;62.41
73457;BME280;61691;53.072;6.582;2023-08-17T08:57:20;102228.38;;;19.65;61.75
73457;BME280;61691;53.072;6.582;2023-08-17T08:59:48;102222.94;;;19.57;62.35
73457;BME280;61691;53.072;6.582;2023-08-17T09:02:16;102237.25;;;19.57;62.08
73457;BME280;61691;53.072;6.582;2023-08-17T09:04:43;102221.22;;;19.48;62.06
73457;BME280;61691;53.072;6.582;2023-08-17T09:07:13;102212.00;;;19.50;62.46
73457;BME280;61691;53.072;6.582;2023-08-17T09:09:40;102192.72;;;19.37;62.62
73457;BME280;61691;53.072;6.582;2023-08-17T09:12:08;102214.09;;;19.64;62.72
73457;BME280;61691;53.072;6.582;2023-08-17T09:14:36;102209.25;;;19.68;62.48
73457;BME280;61691;53.072;6.582;2023-08-17T09:17:04;102202.38;;;19.74;62.58
73457;BME280;61691;53.072;6.582;2023-08-17T09:19:34;102211.81;;;19.86;61.88
73457;BME280;61691;53.072;6.582;2023-08-17T09:22:01;102220.28;;;19.91;61.35
73457;BME280;61691;53.072;6.582;2023-08-17T09:24:37;102181.84;;;19.73;61.11
73457;BME280;61691;53.072;6.582;2023-08-17T09:27:04;102208.78;;;19.81;61.26
73457;BME280;61691;53.072;6.582;2023-08-17T09:29:36;102197.31;;;19.79;61.32
73457;BME280;61691;53.072;6.582;2023-08-17T09:32:06;102196.66;;;19.77;61.44
73457;BME280;61691;53.072;6.582;2023-08-17T09:34:33;102189.59;;;19.76;61.19
73457;BME280;61691;53.072;6.582;2023-08-17T09:37:03;102209.81;;;19.88;61.33
73457;BME280;61691;53.072;6.582;2023-08-17T09:39:31;102212.16;;;19.83;61.42
73457;BME280;61691;53.072;6.582;2023-08-17T09:41:59;102217.00;;;19.79;61.20
73457;BME280;61691;53.072;6.582;2023-08-17T09:44:27;102198.28;;;19.61;61.75
73457;BME280;61691;53.072;6.582;2023-08-17T09:46:57;102194.44;;;19.72;61.81
73457;BME280;61691;53.072;6.582;2023-08-17T09:49:24;102202.31;;;19.65;62.21
73457;BME280;61691;53.072;6.582;2023-08-17T09:51:51;102224.53;;;19.67;61.84
73457;BME280;61691;53.072;6.582;2023-08-17T09:54:23;102197.59;;;19.59;62.16
73457;BME280;61691;53.072;6.582;2023-08-17T09:56:50;102206.34;;;19.61;62.13
73457;BME280;61691;53.072;6.582;2023-08-17T09:59:18;102160.41;;;19.29;62.22
73457;BME280;61691;53.072;6.582;2023-08-17T10:01:48;102192.66;;;19.55;62.68
73457;BME280;61691;53.072;6.582;2023-08-17T10:04:23;102166.56;;;19.47;62.50
73457;BME280;61691;53.072;6.582;2023-08-17T10:06:58;102202.00;;;19.68;62.55
73457;BME280;61691;53.072;6.582;2023-08-17T10:09:31;102161.78;;;19.59;62.60
73457;BME280;61691;53.072;6.582;2023-08-17T10:12:06;102177.19;;;19.83;62.70
73457;BME280;61691;53.072;6.582;2023-08-17T10:14:39;102169.16;;;19.99;62.40
73457;BME280;61691;53.072;6.582;2023-08-17T10:17:15;102179.31;;;20.21;61.96
73457;BME280;61691;53.072;6.582;2023-08-17T10:19:56;102174.59;;;20.31;61.85
73457;BME280;61691;53.072;6.582;2023-08-17T10:22:33;102175.66;;;20.38;61.77
73457;BME280;61691;53.072;6.582;2023-08-17T10:25:03;102179.75;;;20.51;61.91
73457;BME280;61691;53.072;6.582;2023-08-17T10:27:32;102162.22;;;20.63;61.51
73457;BME280;61691;53.072;6.582;2023-08-17T10:30:01;102149.59;;;20.71;61.40
73457;BME280;61691;53.072;6.582;2023-08-17T10:32:28;102195.56;;;21.02;60.34
73457;BME280;61691;53.072;6.582;2023-08-17T10:34:57;102154.97;;;20.96;59.81
73457;BME280;61691;53.072;6.582;2023-08-17T10:37:24;102147.22;;;20.93;59.47
73457;BME280;61691;53.072;6.582;2023-08-17T10:39:51;102166.56;;;21.12;59.68
73457;BME280;61691;53.072;6.582;2023-08-17T10:42:37;102160.50;;;21.10;59.68
73457;BME280;61691;53.072;6.582;2023-08-17T10:45:26;102169.28;;;21.12;59.43
73457;BME280;61691;53.072;6.582;2023-08-17T10:50:34;102169.31;;;20.80;59.29
73457;BME280;61691;53.072;6.582;2023-08-17T10:53:08;102160.22;;;20.65;59.83
73457;BME280;61691;53.072;6.582;2023-08-17T10:55:39;102171.16;;;20.63;60.30
73457;BME280;61691;53.072;6.582;2023-08-17T10:58:07;102152.28;;;20.47;60.20
73457;BME280;61691;53.072;6.582;2023-08-17T11:00:41;102163.22;;;20.54;60.68
73457;BME280;61691;53.072;6.582;2023-08-17T11:03:14;102140.16;;;20.51;60.76
73457;BME280;61691;53.072;6.582;2023-08-17T11:08:33;102164.56;;;20.90;60.89
73457;BME280;61691;53.072;6.582;2023-08-17T11:11:09;102156.13;;;21.01;60.58
73457;BME280;61691;53.072;6.582;2023-08-17T11:13:38;102140.97;;;21.00;60.69
73457;BME280;61691;53.072;6.582;2023-08-17T11:16:06;102142.31;;;21.12;60.52
73457;BME280;61691;53.072;6.582;2023-08-17T11:18:34;102165.91;;;21.18;60.19
73457;BME280;61691;53.072;6.582;2023-08-17T11:21:05;102158.66;;;21.19;60.48
73457;BME280;61691;53.072;6.582;2023-08-17T11:23:34;102138.94;;;21.10;60.22
73457;BME280;61691;53.072;6.582;2023-08-17T11:26:02;102141.78;;;21.09;60.20
73457;BME280;61691;53.072;6.582;2023-08-17T11:28:30;102153.59;;;21.08;60.22
73457;BME280;61691;53.072;6.582;2023-08-17T11:31:09;102143.66;;;20.92;60.56
73457;BME280;61691;53.072;6.582;2023-08-17T11:33:37;102086.28;;;20.59;60.98
73457;BME280;61691;53.072;6.582;2023-08-17T11:36:06;102140.66;;;20.95;61.05
73457;BME280;61691;53.072;6.582;2023-08-17T11:38:35;102143.97;;;21.13;61.40
73457;BME280;61691;53.072;6.582;2023-08-17T11:41:02;102144.81;;;21.30;61.54
73457;BME280;61691;53.072;6.582;2023-08-17T11:43:31;102156.72;;;21.44;60.93
73457;BME280;61691;53.072;6.582;2023-08-17T11:46:00;102095.81;;;21.18;60.57
73457;BME280;61691;53.072;6.582;2023-08-17T11:48:28;102131.81;;;21.42;59.87
73457;BME280;61691;53.072;6.582;2023-08-17T11:50:55;102147.63;;;21.45;59.91
73457;BME280;61691;53.072;6.582;2023-08-17T11:53:22;102143.25;;;21.36;60.56
73457;BME280;61691;53.072;6.582;2023-08-17T11:55:49;102124.41;;;21.28;60.53
73457;BME280;61691;53.072;6.582;2023-08-17T11:58:36;102125.75;;;21.32;60.42
73457;BME280;61691;53.072;6.582;2023-08-17T12:01:08;102120.34;;;21.32;60.38
73457;BME280;61691;53.072;6.582;2023-08-17T12:03:35;102104.03;;;21.25;60.50
73457;BME280;61691;53.072;6.582;2023-08-17T12:06:04;102115.66;;;21.26;60.79
73457;BME280;61691;53.072;6.582;2023-08-17T12:08:31;102106.56;;;21.27;60.96
73457;BME280;61691;53.072;6.582;2023-08-17T12:10:58;102060.09;;;21.00;60.25
73457;BME280;61691;53.072;6.582;2023-08-17T12:13:33;102116.31;;;21.28;60.82
73457;BME280;61691;53.072;6.582;2023-08-17T12:16:01;102091.06;;;21.20;60.74
73457;BME280;61691;53.072;6.582;2023-08-17T12:18:28;102071.84;;;21.15;61.11
73457;BME280;61691;53.072;6.582;2023-08-17T12:20:55;102109.91;;;21.29;61.05
73457;BME280;61691;53.072;6.582;2023-08-17T12:23:22;102116.28;;;21.36;61.06
73457;BME280;61691;53.072;6.582;2023-08-17T12:25:53;102099.75;;;21.39;61.27
73457;BME280;61691;53.072;6.582;2023-08-17T12:28:22;102102.44;;;21.47;60.90
73457;BME280;61691;53.072;6.582;2023-08-17T12:30:57;102121.94;;;21.65;60.75
73457;BME280;61691;53.072;6.582;2023-08-17T12:33:24;102103.69;;;21.67;60.60
73457;BME280;61691;53.072;6.582;2023-08-17T12:35:51;102114.81;;;21.72;60.24
73457;BME280;61691;53.072;6.582;2023-08-17T12:38:18;102101.00;;;21.59;60.15
73457;BME280;61691;53.072;6.582;2023-08-17T12:40:45;102106.78;;;21.56;60.29
73457;BME280;61691;53.072;6.582;2023-08-17T12:43:12;102104.78;;;21.50;60.68
73457;BME280;61691;53.072;6.582;2023-08-17T12:45:41;102104.97;;;21.48;60.42
73457;BME280;61691;53.072;6.582;2023-08-17T12:48:08;102121.75;;;21.58;60.76
73457;BME280;61691;53.072;6.582;2023-08-17T12:50:35;102115.88;;;21.55;60.59
73457;BME280;61691;53.072;6.582;2023-08-17T12:53:09;102123.94;;;21.63;61.11
73457;BME280;61691;53.072;6.582;2023-08-17T12:55:35;102118.91;;;21.60;60.81
73457;BME280;61691;53.072;6.582;2023-08-17T12:58:02;102106.44;;;21.51;60.80
73457;BME280;61691;53.072;6.582;2023-08-17T13:00:29;102114.19;;;21.54;60.86
73457;BME280;61691;53.072;6.582;2023-08-17T13:02:56;102115.53;;;21.58;61.11
73457;BME280;61691;53.072;6.582;2023-08-17T13:05:23;102112.19;;;21.56;60.84
73457;BME280;61691;53.072;6.582;2023-08-17T13:07:50;102109.47;;;21.56;61.26